createdAt,value
2022-10-21T00:02:14.392Z,11.18
2022-10-21T00:05:16.736Z,11.25
2022-10-21T00:08:20.057Z,9.65
2022-10-21T00:11:22.237Z,12.93
2022-10-21T00:14:24.455Z,10.88
2022-10-21T00:17:26.663Z,9.98
2022-10-21T00:20:28.842Z,10.57
2022-10-21T00:23:31.051Z,10.70
2022-10-21T00:26:36.215Z,11.93
2022-10-21T00:29:40.565Z,11.25
2022-10-21T00:32:42.713Z,12.40
2022-10-21T00:35:53.922Z,15.02
2022-10-21T00:38:57.270Z,9.50
2022-10-21T00:41:59.354Z,10.25
2022-10-21T00:45:05.844Z,10.80
2022-10-21T00:48:35.970Z,9.63
2022-10-21T00:54:42.038Z,9.65
2022-10-21T00:57:44.248Z,10.00
2022-10-21T01:00:46.515Z,9.55
2022-10-21T01:03:50.361Z,9.40
2022-10-21T01:06:52.669Z,9.23
2022-10-21T01:09:55.381Z,11.13
2022-10-21T01:13:31.290Z,10.55
2022-10-21T01:16:44.339Z,11.02
2022-10-21T01:20:11.022Z,10.52
2022-10-21T01:23:34.390Z,10.82
2022-10-21T01:27:15.852Z,10.27
2022-10-21T01:30:33.879Z,9.98
2022-10-21T01:34:03.698Z,10.85
2022-10-21T01:37:27.424Z,10.80
2022-10-21T01:41:03.083Z,11.40
2022-10-21T01:44:23.950Z,9.05
2022-10-21T01:47:40.419Z,10.95
2022-10-21T01:50:47.306Z,9.15
2022-10-21T01:54:00.164Z,10.20
2022-10-21T01:57:03.800Z,9.38
2022-10-21T02:00:06.405Z,9.15
2022-10-21T02:03:13.850Z,9.07
2022-10-21T02:06:16.050Z,12.40
2022-10-21T02:09:18.541Z,9.15
2022-10-21T02:12:22.591Z,11.57
2022-10-21T02:15:26.849Z,9.10
2022-10-21T02:18:29.082Z,10.10
2022-10-21T02:21:36.730Z,9.85
2022-10-21T02:24:45.087Z,9.60
2022-10-21T02:27:48.516Z,11.70
2022-10-21T02:30:57.049Z,10.75
2022-10-21T02:34:20.204Z,10.90
2022-10-21T02:37:44.222Z,11.23
2022-10-21T02:40:51.389Z,8.95
2022-10-21T02:43:58.856Z,9.77
2022-10-21T02:47:01.147Z,10.45
2022-10-21T02:50:03.925Z,11.98
2022-10-21T02:53:06.914Z,10.35
2022-10-21T02:56:09.374Z,9.88
2022-10-21T02:59:11.515Z,10.25
2022-10-21T03:02:13.919Z,10.10
2022-10-21T03:05:16.354Z,10.60
2022-10-21T03:08:18.615Z,10.40
2022-10-21T03:11:20.791Z,11.20
2022-10-21T03:14:23.017Z,9.57
2022-10-21T03:17:25.495Z,11.15
2022-10-21T03:20:28.066Z,9.75
2022-10-21T03:23:30.251Z,11.05
2022-10-21T03:26:32.647Z,10.45
2022-10-21T03:29:34.780Z,10.65
2022-10-21T03:32:37.348Z,12.70
2022-10-21T03:35:39.711Z,10.25
2022-10-21T03:38:42.042Z,9.77
2022-10-21T03:41:44.223Z,10.60
2022-10-21T03:44:46.366Z,10.60
2022-10-21T03:47:48.616Z,11.45
2022-10-21T03:50:50.758Z,9.27
2022-10-21T03:53:52.787Z,10.45
2022-10-21T03:56:54.955Z,9.98
2022-10-21T03:59:57.062Z,10.77
2022-10-21T04:02:59.488Z,11.00
2022-10-21T04:06:01.601Z,11.32
2022-10-21T04:09:04.225Z,11.98
2022-10-21T04:12:06.444Z,10.70
2022-10-21T04:15:09.575Z,11.05
2022-10-21T04:18:11.725Z,11.13
2022-10-21T04:21:14.573Z,12.85
2022-10-21T04:24:16.793Z,12.18
2022-10-21T04:27:18.889Z,13.30
2022-10-21T04:30:21.109Z,9.45
2022-10-21T04:33:23.247Z,11.95
2022-10-21T04:36:25.421Z,11.75
2022-10-21T04:39:27.549Z,10.20
2022-10-21T04:42:29.674Z,11.02
2022-10-21T04:45:32.211Z,12.52
2022-10-21T04:48:34.364Z,13.45
2022-10-21T04:51:36.808Z,13.27
2022-10-21T04:54:39.441Z,11.15
2022-10-21T04:57:42.815Z,12.82
2022-10-21T05:00:45.136Z,15.18
2022-10-21T05:03:47.472Z,11.88
2022-10-21T05:06:49.734Z,13.00
2022-10-21T05:09:51.915Z,11.48
2022-10-21T05:12:54.249Z,12.43
2022-10-21T05:16:00.940Z,13.35
2022-10-21T05:19:03.404Z,13.25
2022-10-21T05:22:05.461Z,13.30
2022-10-21T05:25:08.131Z,14.15
2022-10-21T05:28:10.235Z,12.55
2022-10-21T05:31:12.333Z,13.48
2022-10-21T05:34:14.464Z,13.07
2022-10-21T05:37:16.714Z,14.23
2022-10-21T05:40:19.014Z,13.10
2022-10-21T05:43:21.287Z,14.43
2022-10-21T05:46:23.686Z,13.85
2022-10-21T05:49:25.807Z,14.68
2022-10-21T05:52:28.168Z,13.90
2022-10-21T05:55:30.406Z,11.32
2022-10-21T05:58:33.659Z,14.55
2022-10-21T06:01:36.275Z,14.85
2022-10-21T06:04:38.982Z,14.18
2022-10-21T06:07:41.784Z,12.52
2022-10-21T06:10:44.492Z,15.43
2022-10-21T06:13:47.622Z,13.95
2022-10-21T06:16:49.768Z,12.10
2022-10-21T06:19:51.996Z,17.67
2022-10-21T06:22:54.127Z,14.75
2022-10-21T06:26:04.819Z,12.48
2022-10-21T06:29:07.322Z,13.95
2022-10-21T06:32:09.541Z,12.65
2022-10-21T06:35:11.872Z,16.08
2022-10-21T06:38:14.613Z,13.55
2022-10-21T06:41:18.133Z,16.88
2022-10-21T06:44:20.375Z,15.30
2022-10-21T06:47:22.549Z,15.00
2022-10-21T06:50:25.114Z,13.20
2022-10-21T06:53:27.678Z,15.68
2022-10-21T06:56:30.077Z,22.30
2022-10-21T06:59:32.399Z,16.02
2022-10-21T07:02:34.655Z,14.10
2022-10-21T07:05:36.779Z,17.42
2022-10-21T07:08:53.937Z,17.02
2022-10-21T07:12:02.015Z,21.70
2022-10-21T07:15:04.676Z,13.88
2022-10-21T07:18:06.888Z,16.98
2022-10-21T07:21:13.711Z,16.90
2022-10-21T07:24:18.779Z,18.30
2022-10-21T07:27:23.698Z,15.88
2022-10-21T07:30:25.896Z,16.83
2022-10-21T07:33:28.064Z,16.95
2022-10-21T07:36:33.040Z,19.00
2022-10-21T07:39:35.230Z,17.25
2022-10-21T07:42:37.300Z,16.67
2022-10-21T07:45:41.862Z,17.38
2022-10-21T07:48:44.098Z,14.90
2022-10-21T07:51:47.088Z,18.33
2022-10-21T07:54:49.229Z,17.17
2022-10-21T07:57:51.351Z,15.55
2022-10-21T08:00:53.535Z,17.48
2022-10-21T08:03:56.732Z,19.48
2022-10-21T08:06:59.425Z,18.60
2022-10-21T08:10:01.952Z,19.38
2022-10-21T08:13:04.176Z,20.13
2022-10-21T08:16:06.808Z,19.98
2022-10-21T08:19:09.462Z,18.13
2022-10-21T08:22:11.780Z,18.40
2022-10-21T08:25:17.070Z,21.08
2022-10-21T08:28:20.585Z,19.27
2022-10-21T08:31:23.282Z,18.48
2022-10-21T08:34:25.499Z,20.13
2022-10-21T08:37:27.661Z,16.92
2022-10-21T08:40:34.470Z,21.83
2022-10-21T08:43:39.565Z,20.30
2022-10-21T08:46:47.630Z,18.75
2022-10-21T08:50:14.961Z,19.48
2022-10-21T08:53:39.623Z,19.92
2022-10-21T08:56:42.052Z,17.00
2022-10-21T08:59:44.340Z,18.10
2022-10-21T09:03:01.040Z,19.00
2022-10-21T09:06:28.248Z,19.70
2022-10-21T09:09:37.836Z,20.10
2022-10-21T09:13:04.356Z,17.73
2022-10-21T09:16:33.289Z,18.08
2022-10-21T09:19:35.372Z,18.00
2022-10-21T09:22:52.272Z,18.30
2022-10-21T09:26:01.564Z,19.83
2022-10-21T09:29:15.438Z,20.37
2022-10-21T09:32:23.116Z,18.10
2022-10-21T09:35:34.537Z,18.58
2022-10-21T09:38:36.626Z,19.05
2022-10-21T09:41:46.904Z,20.92
2022-10-21T09:47:57.139Z,18.63
2022-10-21T09:51:05.307Z,19.27
2022-10-21T09:54:17.068Z,15.45
2022-10-21T09:57:45.904Z,17.00
2022-10-21T10:00:50.190Z,19.23
2022-10-21T10:03:53.222Z,17.20
2022-10-21T10:06:55.515Z,19.52
2022-10-21T10:09:57.806Z,16.45
2022-10-21T10:13:01.046Z,18.73
2022-10-21T10:16:12.256Z,16.38
2022-10-21T10:19:25.529Z,18.27
2022-10-21T10:22:28.687Z,16.42
2022-10-21T10:25:35.999Z,16.70
2022-10-21T10:28:38.783Z,15.30
2022-10-21T10:31:50.538Z,16.30
2022-10-21T10:34:57.927Z,15.85
2022-10-21T10:38:02.702Z,13.23
2022-10-21T10:41:08.095Z,16.08
2022-10-21T10:44:21.187Z,17.15
2022-10-21T10:47:31.479Z,17.35
2022-10-21T10:50:51.942Z,18.80
2022-10-21T10:54:21.833Z,17.27
2022-10-21T10:57:34.208Z,16.42
2022-10-21T11:00:48.183Z,15.00
2022-10-21T11:03:58.342Z,16.42
2022-10-21T11:10:29.049Z,13.88
2022-10-21T11:13:34.018Z,18.08
2022-10-21T11:17:00.466Z,18.30
2022-10-21T11:20:21.457Z,16.80
2022-10-21T11:23:42.156Z,15.07
2022-10-21T11:26:54.665Z,14.50
2022-10-21T11:30:22.669Z,14.93
2022-10-21T11:33:49.282Z,15.70
2022-10-21T11:37:14.762Z,17.60
2022-10-21T11:40:42.840Z,14.88
2022-10-21T11:43:47.789Z,16.88
2022-10-21T11:47:05.628Z,14.88
2022-10-21T11:54:01.183Z,14.50
2022-10-21T11:57:45.712Z,13.75
2022-10-21T12:01:16.871Z,14.27
2022-10-21T12:04:31.331Z,16.10
2022-10-21T12:07:48.500Z,16.77
2022-10-21T12:11:19.006Z,15.73
2022-10-21T12:14:33.830Z,14.20
2022-10-21T12:20:40.114Z,13.80
2022-10-21T12:23:42.851Z,15.38
2022-10-21T12:27:21.050Z,14.85
2022-10-21T12:30:32.804Z,15.18
2022-10-21T12:33:40.504Z,14.52
2022-10-21T12:36:51.110Z,17.30
2022-10-21T12:40:13.810Z,13.18
2022-10-21T12:43:39.429Z,15.40
2022-10-21T12:46:45.999Z,15.43
2022-10-21T12:50:15.191Z,14.30
2022-10-21T12:53:36.155Z,16.23
2022-10-21T12:56:48.253Z,12.68
2022-10-21T12:59:50.453Z,15.88
2022-10-21T13:02:58.884Z,13.52
2022-10-21T13:06:04.712Z,15.57
2022-10-21T13:09:43.879Z,17.13
2022-10-21T13:12:46.724Z,14.98
2022-10-21T13:15:48.961Z,14.73
2022-10-21T13:18:51.410Z,17.70
2022-10-21T13:22:12.009Z,15.10
2022-10-21T13:25:16.913Z,16.65
2022-10-21T13:28:22.245Z,13.00
2022-10-21T13:31:24.700Z,13.70
2022-10-21T13:34:29.447Z,13.95
2022-10-21T13:37:40.557Z,16.02
2022-10-21T13:40:52.031Z,16.27
2022-10-21T13:44:02.687Z,14.30
2022-10-21T13:47:31.138Z,14.70
2022-10-21T13:50:38.643Z,17.17
2022-10-21T13:53:45.713Z,14.70
2022-10-21T13:56:48.163Z,18.10
2022-10-21T14:00:05.992Z,15.32
2022-10-21T14:03:14.354Z,13.50
2022-10-21T14:06:36.429Z,12.75
2022-10-21T14:09:45.963Z,13.25
2022-10-21T14:12:49.011Z,13.30
2022-10-21T14:15:52.171Z,15.50
2022-10-21T14:18:54.385Z,15.73
2022-10-21T14:21:59.251Z,14.45
2022-10-21T14:25:02.515Z,17.02
2022-10-21T14:28:05.514Z,14.65
2022-10-21T14:31:11.947Z,15.07
2022-10-21T14:34:29.811Z,15.82
2022-10-21T14:37:46.430Z,17.05
2022-10-21T14:40:59.269Z,15.43
2022-10-21T14:44:28.519Z,17.50
2022-10-21T14:47:30.820Z,16.80
2022-10-21T14:50:33.024Z,15.23
2022-10-21T14:53:42.794Z,13.98
2022-10-21T14:56:46.824Z,17.45
2022-10-21T14:59:51.285Z,17.50
2022-10-21T15:02:55.207Z,15.73
2022-10-21T15:06:10.301Z,15.15
2022-10-21T15:09:12.495Z,14.68
2022-10-21T15:12:19.336Z,16.60
2022-10-21T15:15:40.241Z,13.30
2022-10-21T15:18:49.030Z,20.50
2022-10-21T15:22:04.786Z,16.63
2022-10-21T15:25:12.639Z,19.73
2022-10-21T15:28:19.776Z,16.13
2022-10-21T15:31:24.786Z,18.20
2022-10-21T15:34:27.771Z,20.17
2022-10-21T15:37:29.959Z,22.08
2022-10-21T15:40:33.838Z,20.75
2022-10-21T15:43:36.049Z,18.00
2022-10-21T15:46:46.290Z,19.60
2022-10-21T15:49:49.494Z,21.27
2022-10-21T15:52:51.970Z,18.80
2022-10-21T15:55:54.825Z,20.95
2022-10-21T15:58:56.972Z,20.85
2022-10-21T16:01:59.499Z,20.58
2022-10-21T16:05:01.718Z,24.90
2022-10-21T16:08:04.200Z,20.13
2022-10-21T16:11:06.548Z,22.63
2022-10-21T16:14:10.252Z,23.70
2022-10-21T16:17:13.341Z,22.52
2022-10-21T16:20:19.591Z,19.27
2022-10-21T16:23:21.783Z,19.35
2022-10-21T16:26:25.865Z,18.27
2022-10-21T16:29:27.902Z,20.30
2022-10-21T16:32:30.016Z,20.05
2022-10-21T16:35:32.187Z,20.30
2022-10-21T16:38:34.270Z,19.33
2022-10-21T16:41:36.540Z,21.95
2022-10-21T16:44:38.687Z,19.55
2022-10-21T16:47:48.566Z,21.38
2022-10-21T16:50:50.860Z,24.67
2022-10-21T16:53:52.970Z,18.23
2022-10-21T16:56:55.634Z,19.63
2022-10-21T16:59:58.022Z,21.02
2022-10-21T17:03:00.373Z,18.17
2022-10-21T17:06:02.811Z,19.65
2022-10-21T17:09:05.472Z,19.08
2022-10-21T17:12:10.024Z,17.95
2022-10-21T17:15:15.595Z,21.73
2022-10-21T17:18:17.749Z,19.73
2022-10-21T17:21:31.509Z,17.42
2022-10-21T17:24:33.677Z,15.60
2022-10-21T17:27:35.779Z,17.40
2022-10-21T17:30:38.181Z,18.77
2022-10-21T17:33:40.210Z,15.10
2022-10-21T17:36:42.385Z,15.88
2022-10-21T17:39:44.676Z,15.13
2022-10-21T17:42:47.235Z,20.10
2022-10-21T17:45:49.419Z,15.98
2022-10-21T17:48:53.612Z,17.40
2022-10-21T17:51:55.806Z,16.98
2022-10-21T17:54:57.837Z,15.13
2022-10-21T17:58:00.080Z,15.73
2022-10-21T18:01:10.370Z,17.27
2022-10-21T18:04:12.895Z,14.70
2022-10-21T18:07:17.696Z,14.18
2022-10-21T18:10:20.355Z,13.77
2022-10-21T18:13:23.912Z,11.65
2022-10-21T18:16:26.120Z,12.55
2022-10-21T18:19:28.753Z,12.07
2022-10-21T18:22:31.322Z,14.25
2022-10-21T18:25:36.226Z,14.10
2022-10-21T18:28:38.436Z,12.52
2022-10-21T18:31:40.613Z,12.77
2022-10-21T18:34:43.101Z,11.93
2022-10-21T18:37:45.376Z,12.93
2022-10-21T18:40:56.541Z,12.65
2022-10-21T18:44:08.412Z,11.35
2022-10-21T18:47:11.006Z,10.77
2022-10-21T18:50:14.198Z,13.55
2022-10-21T18:53:16.332Z,13.65
2022-10-21T18:56:18.953Z,12.02
2022-10-21T18:59:21.211Z,11.23
2022-10-21T19:02:24.423Z,11.57
2022-10-21T19:05:26.701Z,11.98
2022-10-21T19:08:29.121Z,11.88
2022-10-21T19:11:31.548Z,11.55
2022-10-21T19:14:34.069Z,12.05
2022-10-21T19:17:36.491Z,11.40
2022-10-21T19:20:40.249Z,12.00
2022-10-21T19:23:42.628Z,12.13
2022-10-21T19:26:46.412Z,10.95
2022-10-21T19:29:48.578Z,11.85
2022-10-21T19:32:50.658Z,10.73
2022-10-21T19:35:53.263Z,10.80
2022-10-21T19:38:55.463Z,12.10
2022-10-21T19:41:57.932Z,11.55
2022-10-21T19:45:00.110Z,11.55
2022-10-21T19:48:02.388Z,11.68
2022-10-21T19:51:05.039Z,12.98
2022-10-21T19:54:08.979Z,12.05
2022-10-21T19:57:11.178Z,11.68
2022-10-21T20:00:14.061Z,10.68
2022-10-21T20:03:17.295Z,10.68
2022-10-21T20:06:28.230Z,12.55
2022-10-21T20:09:32.753Z,11.30
2022-10-21T20:12:38.269Z,10.98
2022-10-21T20:15:47.099Z,11.18
2022-10-21T20:18:49.764Z,10.80
2022-10-21T20:21:51.900Z,10.25
2022-10-21T20:24:54.559Z,10.57
2022-10-21T20:27:56.752Z,11.23
2022-10-21T20:31:07.416Z,10.00
2022-10-21T20:34:13.390Z,9.55
2022-10-21T20:37:15.716Z,11.32
2022-10-21T20:40:20.382Z,12.38
2022-10-21T20:43:22.593Z,9.65
2022-10-21T20:46:26.051Z,11.38
2022-10-21T20:49:28.192Z,9.23
2022-10-21T20:52:30.305Z,10.52
2022-10-21T20:55:32.349Z,10.95
2022-10-21T20:58:39.205Z,10.90
2022-10-21T21:01:43.965Z,9.55
2022-10-21T21:04:46.144Z,9.73
2022-10-21T21:07:48.659Z,11.57
2022-10-21T21:10:50.776Z,9.82
2022-10-21T21:13:52.902Z,10.57
2022-10-21T21:16:55.527Z,10.35
2022-10-21T21:19:57.873Z,11.95
2022-10-21T21:22:59.978Z,11.95
2022-10-21T21:26:23.004Z,10.25
2022-10-21T21:29:25.555Z,10.93
2022-10-21T21:32:27.756Z,9.95
2022-10-21T21:35:29.860Z,10.50
2022-10-21T21:38:33.852Z,8.88
2022-10-21T21:41:36.070Z,8.85
2022-10-21T21:44:38.169Z,9.63
2022-10-21T21:47:40.365Z,11.95
2022-10-21T21:50:43.493Z,11.13
2022-10-21T21:53:45.744Z,10.25
2022-10-21T21:56:47.908Z,11.23
2022-10-21T21:59:50.087Z,9.93
2022-10-21T22:02:52.330Z,10.90
2022-10-21T22:05:54.419Z,11.00
2022-10-21T22:08:57.469Z,9.95
2022-10-21T22:11:59.572Z,8.95
2022-10-21T22:15:01.644Z,9.18
2022-10-21T22:18:03.896Z,9.48
2022-10-21T22:21:12.403Z,11.40
2022-10-21T22:24:14.510Z,9.65
2022-10-21T22:27:16.793Z,9.30
2022-10-21T22:30:18.907Z,9.32
2022-10-21T22:33:21.086Z,10.10
2022-10-21T22:36:23.240Z,11.73
2022-10-21T22:39:25.723Z,9.05
2022-10-21T22:42:27.798Z,12.35
2022-10-21T22:45:29.917Z,9.60
2022-10-21T22:48:32.060Z,9.10
2022-10-21T22:51:34.357Z,9.60
2022-10-21T22:54:48.980Z,9.57
2022-10-21T22:57:51.520Z,11.38
2022-10-21T23:00:56.870Z,9.43
2022-10-21T23:04:04.108Z,10.30
2022-10-21T23:07:06.466Z,10.10
2022-10-21T23:10:08.890Z,13.05
2022-10-21T23:13:11.135Z,10.35
2022-10-21T23:16:13.224Z,11.63
2022-10-21T23:19:15.624Z,11.02
2022-10-21T23:22:18.992Z,11.00
2022-10-21T23:25:23.035Z,11.88
2022-10-21T23:28:25.219Z,12.23
2022-10-21T23:31:27.367Z,9.27
2022-10-21T23:34:29.518Z,11.02
2022-10-21T23:37:31.598Z,11.27
2022-10-21T23:40:33.689Z,10.80
2022-10-21T23:43:35.782Z,14.93
2022-10-21T23:46:38.457Z,12.45
2022-10-21T23:49:40.620Z,13.38
2022-10-21T23:52:43.191Z,12.43
2022-10-21T23:55:45.356Z,13.18
2022-10-21T23:58:47.454Z,12.30
